Time;durP1;ratioP1;P1;durP2;ratioP2;P2;SDS_P1;SDS_P2;PMS_P1;PMS_P2;Temp;Humidity;BMP_temperature;BMP_pressure;BME280_temperature;BME280_humidity;BME280_pressure;Samples;Min_cycle;Max_cycle;Signal;HPM_P1;HPM_P2
2021/04/26 00:02:00;;;;;;;10.00;3.00;;;4.90;99.90;;;;;;5091257;28;20227;-77
2021/04/26 00:04:26;;;;;;;13.20;2.93;;;4.90;99.90;;;;;;5093406;28;20660;-76
2021/04/26 00:06:53;;;;;;;11.97;2.80;;;5.00;99.90;;;;;;5089398;28;20245;-76
2021/04/26 00:09:19;;;;;;;12.43;3.03;;;4.90;99.90;;;;;;5093996;28;20260;-76
2021/04/26 00:11:45;;;;;;;8.93;2.47;;;4.90;99.90;;;;;;5078783;28;20293;-77
2021/04/26 00:14:12;;;;;;;6.70;2.47;;;4.80;99.90;;;;;;5072981;28;20197;-76
2021/04/26 00:16:39;;;;;;;9.10;2.60;;;4.80;99.90;;;;;;5072834;28;20258;-81
2021/04/26 00:19:05;;;;;;;10.13;2.43;;;4.70;99.90;;;;;;5073198;28;20254;-76
2021/04/26 00:21:32;;;;;;;15.10;2.50;;;4.70;99.90;;;;;;5072981;28;20558;-80
2021/04/26 00:23:59;;;;;;;10.17;2.90;;;4.70;99.90;;;;;;5072840;28;20299;-81
2021/04/26 00:26:25;;;;;;;10.43;2.73;;;4.70;99.90;;;;;;5072740;28;20295;-78
2021/04/26 00:28:51;;;;;;;17.47;2.90;;;4.70;99.90;;;;;;5072893;28;20222;-76
2021/04/26 00:31:18;;;;;;;9.13;3.07;;;4.60;99.90;;;;;;5072740;28;20293;-76
2021/04/26 00:33:45;;;;;;;10.00;3.10;;;4.60;99.90;;;;;;5072408;28;20663;-76
2021/04/26 00:36:11;;;;;;;10.97;2.87;;;4.60;99.90;;;;;;5088454;28;20638;-75
2021/04/26 00:38:38;;;;;;;12.23;3.03;;;4.60;99.90;;;;;;5092647;28;20711;-76
2021/04/26 00:41:04;;;;;;;13.07;2.90;;;4.60;99.90;;;;;;5092998;28;20207;-77
2021/04/26 00:43:31;;;;;;;8.23;2.30;;;4.60;99.90;;;;;;5092954;28;20200;-78
2021/04/26 00:45:57;;;;;;;7.77;2.50;;;4.60;99.90;;;;;;5093055;28;20252;-76
2021/04/26 00:48:23;;;;;;;13.20;3.30;;;4.60;99.90;;;;;;5092902;28;20257;-80
2021/04/26 00:50:51;;;;;;;9.53;2.57;;;4.50;99.90;;;;;;5093391;28;20208;-78
2021/04/26 00:53:17;;;;;;;10.73;2.70;;;4.50;99.90;;;;;;5093328;28;20196;-81
2021/04/26 00:55:44;;;;;;;8.23;2.87;;;4.60;99.90;;;;;;5093358;28;20199;-75
2021/04/26 00:58:10;;;;;;;11.00;3.27;;;4.50;99.90;;;;;;5093064;28;20801;-80
2021/04/26 01:00:37;;;;;;;13.40;2.90;;;4.50;99.90;;;;;;5093611;28;20203;-76
2021/04/26 01:03:04;;;;;;;9.33;2.90;;;4.50;99.90;;;;;;5093121;28;20286;-79
2021/04/26 01:05:33;;;;;;;7.37;2.70;;;4.40;99.90;;;;;;5091725;28;20231;-76
2021/04/26 01:08:01;;;;;;;12.27;3.90;;;4.40;99.90;;;;;;5092980;28;20286;-76
2021/04/26 01:10:30;;;;;;;9.67;2.63;;;4.40;99.90;;;;;;5093305;28;20196;-78
2021/04/26 01:13:21;;;;;;;11.63;3.13;;;4.40;99.90;;;;;;5093278;28;20241;-76
2021/04/26 01:15:55;;;;;;;9.50;2.90;;;4.40;99.90;;;;;;5092797;28;20488;-76
2021/04/26 01:18:26;;;;;;;13.53;2.73;;;4.40;99.90;;;;;;5093022;28;20336;-80
2021/04/26 01:21:30;;;;;;;10.50;3.00;;;4.40;99.90;;;;;;5092685;28;20202;-81
2021/04/26 01:24:39;;;;;;;14.50;3.93;;;4.40;99.90;;;;;;5092575;28;20286;-76
2021/04/26 01:27:10;;;;;;;12.33;2.90;;;4.30;99.90;;;;;;5095139;28;20214;-79
2021/04/26 01:30:10;;;;;;;16.40;3.20;;;4.30;99.90;;;;;;5096530;28;20228;-82
2021/04/26 01:32:41;;;;;;;8.10;2.70;;;4.30;99.90;;;;;;5093788;28;20209;-79
2021/04/26 01:35:11;;;;;;;12.03;3.00;;;4.30;99.90;;;;;;5096536;28;20363;-76
2021/04/26 01:37:39;;;;;;;10.67;2.57;;;4.30;99.90;;;;;;5096192;28;20228;-76
2021/04/26 01:40:09;;;;;;;13.03;3.13;;;4.30;99.90;;;;;;5096719;28;20205;-75
2021/04/26 01:42:38;;;;;;;13.70;2.83;;;4.20;99.90;;;;;;5096584;28;20308;-74
2021/04/26 01:45:06;;;;;;;11.20;2.97;;;4.20;99.90;;;;;;5095920;28;20385;-76
2021/04/26 01:47:35;;;;;;;13.73;3.30;;;4.10;99.90;;;;;;5095931;28;20204;-77
2021/04/26 01:50:07;;;;;;;13.30;3.13;;;4.10;99.90;;;;;;5096314;28;20562;-76
2021/04/26 01:52:35;;;;;;;10.37;2.90;;;4.10;99.90;;;;;;5096051;28;20224;-76
2021/04/26 01:55:02;;;;;;;8.13;3.30;;;4.00;99.90;;;;;;5096195;28;20198;-79
2021/04/26 01:57:30;;;;;;;10.40;3.50;;;4.00;99.90;;;;;;5095530;28;20232;-76
2021/04/26 01:59:59;;;;;;;15.03;3.60;;;4.00;99.90;;;;;;5095649;28;20292;-76
2021/04/26 02:02:26;;;;;;;7.60;2.97;;;4.00;99.90;;;;;;5095931;28;20200;-76
2021/04/26 02:04:53;;;;;;;14.97;2.87;;;4.00;99.90;;;;;;5095817;28;20204;-76
2021/04/26 02:07:21;;;;;;;10.40;3.13;;;4.10;99.90;;;;;;5095544;28;20261;-76
2021/04/26 02:09:49;;;;;;;9.13;3.03;;;4.00;99.90;;;;;;5095615;28;20681;-80
2021/04/26 02:12:16;;;;;;;8.73;3.30;;;4.00;99.90;;;;;;5095744;28;20204;-76
2021/04/26 02:14:42;;;;;;;10.03;3.10;;;4.00;99.90;;;;;;5095467;28;20205;-75
2021/04/26 02:17:09;;;;;;;6.43;2.70;;;4.00;99.90;;;;;;5095489;28;20319;-75
2021/04/26 02:19:35;;;;;;;11.73;3.00;;;4.00;99.90;;;;;;5095268;28;20201;-76
2021/04/26 02:22:02;;;;;;;11.27;2.87;;;4.00;99.90;;;;;;5095190;28;20719;-75
2021/04/26 02:24:29;;;;;;;12.30;3.47;;;4.00;99.90;;;;;;5095525;28;20286;-78
2021/04/26 02:26:58;;;;;;;11.23;2.80;;;3.80;99.90;;;;;;5094964;28;20215;-77
2021/04/26 02:29:24;;;;;;;16.17;3.07;;;3.80;99.90;;;;;;5095447;28;20205;-77
2021/04/26 02:31:54;;;;;;;10.90;2.87;;;3.80;99.90;;;;;;5095311;28;20193;-79
2021/04/26 02:34:25;;;;;;;9.03;2.90;;;3.80;99.90;;;;;;5095132;28;20196;-75
2021/04/26 02:36:55;;;;;;;15.70;3.20;;;3.80;99.90;;;;;;5094877;28;20227;-76
2021/04/26 02:39:22;;;;;;;9.17;3.00;;;3.80;99.90;;;;;;5094879;28;20225;-79
2021/04/26 02:41:50;;;;;;;12.77;3.03;;;3.70;99.90;;;;;;5095021;28;20673;-81
2021/04/26 02:44:22;;;;;;;8.17;2.83;;;3.60;99.90;;;;;;5094899;28;20260;-75
2021/04/26 02:46:50;;;;;;;13.77;3.23;;;3.60;99.90;;;;;;5095030;28;20196;-76
2021/04/26 02:49:18;;;;;;;14.57;3.33;;;3.50;99.90;;;;;;5094851;28;20274;-76
2021/04/26 02:51:45;;;;;;;13.70;3.00;;;3.50;99.90;;;;;;5094456;28;20655;-76
2021/04/26 02:54:12;;;;;;;11.40;3.00;;;3.50;99.90;;;;;;5094746;28;20211;-76
2021/04/26 02:56:40;;;;;;;11.10;2.97;;;3.50;99.90;;;;;;5094776;28;20197;-76
2021/04/26 02:59:09;;;;;;;6.57;2.80;;;3.40;99.90;;;;;;5094511;28;20200;-78
2021/04/26 03:01:37;;;;;;;15.40;3.20;;;3.40;99.90;;;;;;5094402;28;20212;-76
2021/04/26 03:04:05;;;;;;;10.03;3.20;;;3.50;99.90;;;;;;5094170;28;20184;-79
2021/04/26 03:06:32;;;;;;;11.70;3.47;;;3.40;99.90;;;;;;5094646;28;20729;-75
2021/04/26 03:08:58;;;;;;;10.30;4.10;;;3.30;99.90;;;;;;5094656;28;20250;-76
2021/04/26 03:11:26;;;;;;;12.60;3.40;;;3.30;99.90;;;;;;5094287;28;20677;-76
2021/04/26 03:13:53;;;;;;;12.20;3.90;;;3.30;99.90;;;;;;5094342;28;20620;-75
2021/04/26 03:16:20;;;;;;;8.67;3.17;;;3.30;99.90;;;;;;5094200;28;20254;-81
2021/04/26 03:18:47;;;;;;;8.47;3.20;;;3.20;99.90;;;;;;5093915;28;20237;-75
2021/04/26 03:21:14;;;;;;;9.13;3.20;;;3.20;99.90;;;;;;5094087;28;20283;-75
2021/04/26 03:23:43;;;;;;;9.80;2.97;;;3.20;99.90;;;;;;5094095;28;20213;-78
2021/04/26 03:26:10;;;;;;;10.97;3.40;;;3.20;99.90;;;;;;5093850;28;20218;-75
2021/04/26 03:28:39;;;;;;;10.13;3.20;;;3.20;99.90;;;;;;5094263;28;20200;-77
2021/04/26 03:31:07;;;;;;;10.07;3.57;;;3.20;99.90;;;;;;5094068;28;20203;-75
2021/04/26 03:33:36;;;;;;;9.80;3.80;;;3.20;99.90;;;;;;5094085;28;20207;-75
2021/04/26 03:36:03;;;;;;;11.07;3.50;;;3.10;99.90;;;;;;5094232;28;20201;-78
2021/04/26 03:38:30;;;;;;;13.97;3.33;;;3.10;99.90;;;;;;5093662;28;20313;-75
2021/04/26 03:40:58;;;;;;;10.43;3.37;;;3.10;99.90;;;;;;5094112;28;20296;-76
2021/04/26 03:43:24;;;;;;;16.10;3.37;;;3.00;99.90;;;;;;5093706;28;20202;-77
2021/04/26 03:45:54;;;;;;;5.37;2.97;;;3.10;99.90;;;;;;5093762;28;20196;-76
2021/04/26 03:48:21;;;;;;;8.93;3.00;;;3.10;99.90;;;;;;5093386;28;20196;-78
2021/04/26 03:50:49;;;;;;;12.77;3.13;;;3.00;99.90;;;;;;5093714;28;20552;-76
2021/04/26 03:53:15;;;;;;;13.37;3.30;;;3.00;99.90;;;;;;5093483;28;20665;-77
2021/04/26 03:55:42;;;;;;;7.40;3.13;;;3.00;99.90;;;;;;5093247;28;20279;-75
2021/04/26 03:58:08;;;;;;;10.60;3.90;;;3.00;99.90;;;;;;5093478;28;20224;-75
2021/04/26 04:00:35;;;;;;;9.67;3.27;;;2.90;99.90;;;;;;5093222;28;20249;-77
2021/04/26 04:03:05;;;;;;;15.47;3.77;;;2.90;99.90;;;;;;5093120;28;20203;-75
2021/04/26 04:05:31;;;;;;;11.20;3.60;;;2.90;99.90;;;;;;5093275;28;20200;-76
2021/04/26 04:07:58;;;;;;;11.53;3.50;;;2.90;99.90;;;;;;5093265;28;20201;-79
2021/04/26 04:10:25;;;;;;;12.87;3.53;;;2.90;99.90;;;;;;5093359;28;20292;-75
2021/04/26 04:12:51;;;;;;;13.87;3.90;;;2.90;99.90;;;;;;5093073;28;20290;-76
2021/04/26 04:15:18;;;;;;;8.73;3.37;;;2.90;99.90;;;;;;5092958;28;20295;-78
2021/04/26 04:17:44;;;;;;;9.30;3.63;;;2.90;99.90;;;;;;5093290;28;20641;-75
2021/04/26 04:20:12;;;;;;;9.47;3.77;;;2.80;99.90;;;;;;5093251;28;20353;-78
2021/04/26 04:22:39;;;;;;;12.53;3.60;;;2.80;99.90;;;;;;5092979;28;20382;-75
2021/04/26 04:25:08;;;;;;;13.37;3.60;;;2.90;99.90;;;;;;5093050;28;20233;-77
2021/04/26 04:27:35;;;;;;;9.10;3.80;;;2.80;99.90;;;;;;5092977;28;20210;-75
2021/04/26 04:30:03;;;;;;;12.10;4.10;;;2.80;99.90;;;;;;5092763;28;20792;-77
2021/04/26 04:32:29;;;;;;;9.30;3.97;;;2.80;99.90;;;;;;5092888;28;20208;-75
2021/04/26 04:34:56;;;;;;;12.77;3.70;;;2.70;99.90;;;;;;5093065;28;20294;-76
2021/04/26 04:37:22;;;;;;;12.13;4.10;;;2.70;99.90;;;;;;5092935;28;20234;-78
2021/04/26 04:39:49;;;;;;;14.13;3.90;;;2.70;99.90;;;;;;5092875;28;20591;-75
2021/04/26 04:42:16;;;;;;;9.10;3.37;;;2.70;99.90;;;;;;5092658;28;20207;-75
2021/04/26 04:44:42;;;;;;;12.33;4.20;;;2.70;99.90;;;;;;5092461;28;20192;-78
2021/04/26 04:47:09;;;;;;;13.50;4.37;;;2.80;99.90;;;;;;5091434;28;20216;-75
2021/04/26 04:49:36;;;;;;;9.23;4.03;;;2.90;99.90;;;;;;5090559;28;20201;-75
2021/04/26 04:52:03;;;;;;;13.33;3.77;;;2.90;99.90;;;;;;5083936;28;20208;-75
2021/04/26 04:54:29;;;;;;;14.80;4.13;;;3.00;99.90;;;;;;5090889;28;20676;-75
2021/04/26 04:56:55;;;;;;;8.80;4.20;;;3.10;99.90;;;;;;5086191;28;20239;-75
2021/04/26 04:59:23;;;;;;;8.50;3.53;;;3.10;99.90;;;;;;5089635;28;20286;-75
2021/04/26 05:01:49;;;;;;;11.73;3.83;;;3.20;99.90;;;;;;5094500;28;20279;-81
2021/04/26 05:04:16;;;;;;;8.43;3.63;;;3.30;99.90;;;;;;5096505;28;20245;-76
2021/04/26 05:06:42;;;;;;;10.73;4.13;;;3.50;99.90;;;;;;5096337;28;20219;-79
2021/04/26 05:09:08;;;;;;;10.57;3.37;;;3.50;99.90;;;;;;5093096;28;20197;-76
2021/04/26 05:11:35;;;;;;;12.37;3.67;;;3.60;99.90;;;;;;5092460;28;20295;-75
2021/04/26 05:14:02;;;;;;;12.43;3.67;;;3.60;99.90;;;;;;5080689;28;20195;-75
2021/04/26 05:16:31;;;;;;;12.73;3.80;;;3.70;99.90;;;;;;5095743;28;20192;-78
2021/04/26 05:18:59;;;;;;;14.73;3.50;;;3.90;99.90;;;;;;5086817;28;20615;-78
2021/04/26 05:21:26;;;;;;;10.53;3.73;;;3.90;99.90;;;;;;5076248;28;20200;-77
2021/04/26 05:23:52;;;;;;;8.73;3.87;;;4.40;99.90;;;;;;5075539;28;20243;-75
2021/04/26 05:26:19;;;;;;;14.40;3.37;;;5.20;99.90;;;;;;5094870;28;20208;-75
2021/04/26 05:28:45;;;;;;;11.80;3.47;;;6.00;99.90;;;;;;5091673;28;20258;-75
2021/04/26 05:31:11;;;;;;;14.67;3.40;;;6.80;99.90;;;;;;5096228;28;20721;-79
2021/04/26 05:33:38;;;;;;;12.27;3.43;;;7.10;99.90;;;;;;5098382;28;20191;-79
2021/04/26 05:36:05;;;;;;;8.70;3.20;;;7.50;99.90;;;;;;5095262;28;20205;-75
2021/04/26 05:38:31;;;;;;;19.07;3.50;;;7.30;99.90;;;;;;5093823;28;20217;-81
2021/04/26 05:40:58;;;;;;;8.97;3.30;;;6.50;99.90;;;;;;5096642;28;20230;-78
2021/04/26 05:43:24;;;;;;;14.87;3.17;;;5.90;99.90;;;;;;5095904;28;20204;-77
2021/04/26 05:45:51;;;;;;;19.07;3.50;;;5.50;99.90;;;;;;5114351;28;20235;-74
2021/04/26 05:48:17;;;;;;;11.70;3.80;;;5.30;99.90;;;;;;5116024;28;20687;-75
2021/04/26 05:50:45;;;;;;;15.67;3.73;;;5.10;99.90;;;;;;5096340;28;20788;-76
2021/04/26 05:53:11;;;;;;;10.27;3.83;;;4.80;99.90;;;;;;5075862;28;20275;-80
2021/04/26 05:55:37;;;;;;;13.70;3.87;;;4.70;99.90;;;;;;5075269;28;20287;-78
2021/04/26 05:58:04;;;;;;;16.50;3.50;;;4.70;99.90;;;;;;5083065;28;20214;-77
2021/04/26 06:00:30;;;;;;;8.87;3.77;;;4.70;99.90;;;;;;5095674;28;20200;-75
2021/04/26 06:02:57;;;;;;;9.97;3.40;;;4.70;99.90;;;;;;5106476;28;20599;-77
2021/04/26 06:05:24;;;;;;;12.60;3.27;;;4.70;99.90;;;;;;5110674;28;20715;-78
2021/04/26 06:07:51;;;;;;;15.27;4.00;;;4.50;99.90;;;;;;5114771;28;20293;-76
2021/04/26 06:10:17;;;;;;;13.93;3.60;;;4.50;99.90;;;;;;5116107;28;20201;-77
2021/04/26 06:12:44;;;;;;;14.43;3.80;;;4.50;99.90;;;;;;5095414;28;20215;-77
2021/04/26 06:15:10;;;;;;;11.10;3.70;;;4.60;99.90;;;;;;5075401;28;20340;-79
2021/04/26 06:17:37;;;;;;;14.40;3.93;;;4.70;99.90;;;;;;5074940;28;20309;-76
2021/04/26 06:20:04;;;;;;;8.37;3.67;;;4.70;99.90;;;;;;5074885;28;20674;-77
2021/04/26 06:22:30;;;;;;;16.50;4.10;;;4.80;99.90;;;;;;5074142;28;20287;-77
2021/04/26 06:24:57;;;;;;;14.50;3.90;;;4.80;99.90;;;;;;5074442;28;20202;-76
2021/04/26 06:27:24;;;;;;;8.80;3.50;;;4.90;99.90;;;;;;5074287;28;20197;-79
2021/04/26 06:29:50;;;;;;;12.53;3.63;;;4.90;99.90;;;;;;5075460;28;20254;-77
2021/04/26 06:32:16;;;;;;;9.70;3.40;;;5.00;99.90;;;;;;5076091;28;20233;-76
2021/04/26 06:34:43;;;;;;;9.73;3.60;;;5.10;99.90;;;;;;5074321;28;20200;-77
2021/04/26 06:37:09;;;;;;;10.60;3.10;;;5.20;99.90;;;;;;5074422;28;20260;-78
2021/04/26 06:39:35;;;;;;;8.47;3.57;;;5.30;99.90;;;;;;5074299;28;20604;-76
2021/04/26 06:42:03;;;;;;;13.10;3.87;;;5.50;99.90;;;;;;5075143;28;20197;-77
2021/04/26 06:44:29;;;;;;;15.43;3.63;;;5.50;99.90;;;;;;5074902;28;20710;-79
2021/04/26 06:46:56;;;;;;;14.03;4.50;;;5.50;99.90;;;;;;5067753;28;20574;-76
2021/04/26 06:49:24;;;;;;;14.70;4.13;;;5.60;99.90;;;;;;5075610;28;20300;-77
2021/04/26 06:51:50;;;;;;;15.63;3.87;;;5.70;99.90;;;;;;5078486;28;20277;-76
2021/04/26 06:54:19;;;;;;;17.03;3.97;;;5.80;99.90;;;;;;5076217;28;20656;-78
2021/04/26 06:56:45;;;;;;;11.67;3.73;;;5.90;99.90;;;;;;5086614;28;20240;-76
2021/04/26 06:59:13;;;;;;;16.50;4.77;;;6.20;99.90;;;;;;5100418;28;20294;-76
2021/04/26 07:01:39;;;;;;;16.00;4.17;;;6.20;99.90;;;;;;5089179;28;20288;-76
2021/04/26 07:04:08;;;;;;;9.87;4.17;;;6.20;99.90;;;;;;5093854;28;20211;-76
2021/04/26 07:06:35;;;;;;;24.23;4.33;;;6.30;99.90;;;;;;5075082;28;20670;-76
2021/04/26 07:09:01;;;;;;;17.83;3.83;;;6.20;99.90;;;;;;5088504;28;20284;-77
2021/04/26 07:11:27;;;;;;;14.57;4.30;;;6.30;99.90;;;;;;5077071;28;20288;-76
2021/04/26 07:13:54;;;;;;;13.07;4.30;;;6.30;99.90;;;;;;5095528;28;20198;-77
2021/04/26 07:16:21;;;;;;;9.23;3.97;;;6.50;99.90;;;;;;5095858;28;20260;-77
2021/04/26 07:18:47;;;;;;;10.27;4.30;;;6.50;99.90;;;;;;5096945;28;20227;-76
2021/04/26 07:21:14;;;;;;;11.80;4.07;;;6.60;99.90;;;;;;5095910;28;20199;-77
2021/04/26 07:23:40;;;;;;;9.80;3.40;;;6.70;99.90;;;;;;5095656;28;20200;-76
2021/04/26 07:26:07;;;;;;;11.87;4.27;;;6.70;99.90;;;;;;5095336;28;20237;-76
2021/04/26 07:28:33;;;;;;;10.17;3.97;;;6.80;99.90;;;;;;5083815;28;20615;-76
2021/04/26 07:31:00;;;;;;;17.77;4.10;;;6.90;99.90;;;;;;5096199;28;20597;-80
2021/04/26 07:33:27;;;;;;;16.13;4.30;;;7.10;99.90;;;;;;5094257;28;20274;-77
2021/04/26 07:35:54;;;;;;;12.17;3.67;;;7.00;99.90;;;;;;5094185;28;20284;-77
2021/04/26 07:38:20;;;;;;;14.83;4.10;;;7.10;99.90;;;;;;5094572;28;20223;-76
2021/04/26 07:40:47;;;;;;;18.60;5.03;;;7.30;99.90;;;;;;5083584;28;20207;-77
2021/04/26 07:43:13;;;;;;;7.87;4.60;;;7.40;99.90;;;;;;5077784;28;20286;-79
2021/04/26 07:45:43;;;;;;;8.83;3.97;;;7.50;99.90;;;;;;5093827;28;20669;-78
2021/04/26 07:48:09;;;;;;;16.10;4.40;;;7.50;99.90;;;;;;5086451;28;20260;-79
2021/04/26 07:50:36;;;;;;;11.73;4.37;;;7.70;99.90;;;;;;5094691;28;20930;-75
2021/04/26 07:53:03;;;;;;;8.60;3.97;;;7.80;99.90;;;;;;5099805;28;20288;-76
2021/04/26 07:55:30;;;;;;;11.93;4.00;;;7.90;99.90;;;;;;5075614;28;20204;-76
2021/04/26 07:57:56;;;;;;;7.20;4.20;;;7.90;99.90;;;;;;5072855;28;20234;-77
2021/04/26 08:00:22;;;;;;;8.70;3.80;;;7.90;99.90;;;;;;5094109;28;20197;-76
2021/04/26 08:02:49;;;;;;;13.33;4.33;;;7.90;99.90;;;;;;5094162;28;20562;-76
2021/04/26 08:05:15;;;;;;;14.30;4.30;;;8.10;99.90;;;;;;5094808;28;20289;-78
2021/04/26 08:07:43;;;;;;;8.30;4.53;;;8.30;99.90;;;;;;5093586;28;20675;-76
2021/04/26 08:10:10;;;;;;;12.03;4.90;;;8.40;99.90;;;;;;5093600;28;20276;-79
2021/04/26 08:12:37;;;;;;;15.40;4.53;;;8.80;99.90;;;;;;5092987;28;20721;-76
2021/04/26 08:15:05;;;;;;;12.47;3.93;;;9.90;99.90;;;;;;5093339;28;20242;-76
2021/04/26 08:17:32;;;;;;;13.80;3.97;;;11.70;99.90;;;;;;5092949;28;20225;-77
2021/04/26 08:19:58;;;;;;;12.10;3.67;;;13.00;99.90;;;;;;5093163;28;20315;-77
2021/04/26 08:22:25;;;;;;;9.97;3.73;;;14.00;99.90;;;;;;5093347;28;20281;-80
2021/04/26 08:24:52;;;;;;;15.43;4.30;;;14.30;99.90;;;;;;5093273;28;20297;-77
2021/04/26 08:27:18;;;;;;;12.60;4.00;;;14.80;99.90;;;;;;5092438;28;20203;-79
2021/04/26 08:29:45;;;;;;;11.97;3.87;;;15.30;99.90;;;;;;5092585;28;20295;-77
2021/04/26 08:32:11;;;;;;;8.80;3.97;;;16.60;99.90;;;;;;5083953;28;20203;-78
2021/04/26 08:34:38;;;;;;;10.47;4.23;;;17.50;99.90;;;;;;5093272;28;20599;-77
2021/04/26 08:37:05;;;;;;;10.30;4.50;;;17.10;99.90;;;;;;5093019;28;20324;-80
2021/04/26 08:39:32;;;;;;;10.70;4.13;;;16.40;99.90;;;;;;5092663;28;20644;-78
2021/04/26 08:41:59;;;;;;;10.47;3.93;;;17.00;99.90;;;;;;5092739;28;20222;-79
2021/04/26 08:44:26;;;;;;;10.53;3.73;;;16.70;99.90;;;;;;5092149;28;20287;-77
2021/04/26 08:46:53;;;;;;;8.43;3.77;;;16.70;99.90;;;;;;5093979;28;20194;-77
2021/04/26 08:49:21;;;;;;;13.37;4.10;;;16.90;99.90;;;;;;5074548;28;20201;-77
2021/04/26 08:51:47;;;;;;;9.77;3.80;;;17.40;99.90;;;;;;5085781;28;20380;-77
2021/04/26 08:54:14;;;;;;;13.90;4.60;;;17.60;99.90;;;;;;5088555;28;20668;-77
2021/04/26 08:56:41;;;;;;;11.27;3.60;;;17.50;99.90;;;;;;5092591;28;20225;-76
2021/04/26 08:59:08;;;;;;;8.60;3.87;;;17.60;99.90;;;;;;5092490;28;20247;-77
2021/04/26 09:01:34;;;;;;;8.33;3.50;;;18.00;99.90;;;;;;5091823;28;20230;-79
2021/04/26 09:04:05;;;;;;;10.30;3.80;;;18.70;99.90;;;;;;5092133;28;20206;-80
2021/04/26 09:06:49;;;;;;;9.07;3.70;;;18.50;99.90;;;;;;5092299;28;20198;-75
2021/04/26 09:09:36;;;;;;;8.83;3.77;;;17.50;99.90;;;;;;5092897;28;20195;-77
2021/04/26 09:12:04;;;;;;;6.33;3.70;;;17.90;99.90;;;;;;5092616;28;20194;-77
2021/04/26 09:14:42;;;;;;;7.30;3.60;;;18.10;99.90;;;;;;5092142;28;20199;-78
2021/04/26 09:17:31;;;;;;;16.60;3.43;;;18.50;99.90;;;;;;5092462;28;20206;-79
2021/04/26 09:20:01;;;;;;;11.67;4.37;;;18.90;99.90;;;;;;5092570;28;20187;-78
2021/04/26 09:22:47;;;;;;;8.63;3.80;;;19.10;99.90;;;;;;5092421;28;20215;-77
2021/04/26 09:25:26;;;;;;;6.63;3.80;;;18.60;99.90;;;;;;5091936;28;20213;-77
2021/04/26 09:27:54;;;;;;;9.57;3.50;;;18.30;99.90;;;;;;5092020;28;20203;-77
2021/04/26 09:30:46;;;;;;;8.27;3.57;;;18.00;99.90;;;;;;5095136;28;20285;-78
2021/04/26 09:33:15;;;;;;;4.90;3.00;;;17.20;99.90;;;;;;5091200;28;20206;-76
2021/04/26 09:35:42;;;;;;;3.33;2.53;;;16.70;99.90;;;;;;5092112;28;20199;-76
2021/04/26 09:38:23;;;;;;;7.50;2.90;;;16.50;99.90;;;;;;5091803;28;20561;-75
2021/04/26 09:41:11;;;;;;;5.63;3.13;;;17.50;99.90;;;;;;5091900;28;20287;-79
2021/04/26 09:43:39;;;;;;;8.60;3.00;;;18.00;99.90;;;;;;5072027;28;20224;-77
2021/04/26 09:46:06;;;;;;;6.23;3.07;;;18.00;99.90;;;;;;5073336;28;20200;-76
2021/04/26 09:48:33;;;;;;;5.37;2.93;;;17.90;99.90;;;;;;5092138;28;20289;-76
2021/04/26 09:51:05;;;;;;;5.83;3.20;;;17.50;99.90;;;;;;5095064;28;20282;-77
2021/04/26 09:53:35;;;;;;;10.47;3.50;;;17.50;99.90;;;;;;5096031;28;20282;-77
2021/04/26 09:56:11;;;;;;;6.60;3.10;;;17.40;99.90;;;;;;5095783;28;20195;-80
2021/04/26 09:58:39;;;;;;;8.23;3.30;;;17.30;99.90;;;;;;5096173;28;20748;-77
2021/04/26 10:01:06;;;;;;;9.57;3.00;;;17.50;99.90;;;;;;5095200;28;20203;-79
2021/04/26 10:03:33;;;;;;;8.23;3.20;;;18.10;99.90;;;;;;5094931;28;20656;-77
2021/04/26 10:05:59;;;;;;;5.53;3.23;;;17.90;99.90;;;;;;5094797;28;20653;-77
2021/04/26 10:08:27;;;;;;;6.20;3.53;;;17.90;99.90;;;;;;5095760;28;20206;-76
2021/04/26 10:10:54;;;;;;;7.67;3.60;;;17.80;99.90;;;;;;5095476;28;20251;-78
2021/04/26 10:13:22;;;;;;;8.00;3.30;;;18.00;99.90;;;;;;5095611;28;20294;-80
2021/04/26 10:15:55;;;;;;;7.00;3.40;;;17.40;99.90;;;;;;5095486;28;20198;-78
2021/04/26 10:18:28;;;;;;;5.93;3.10;;;17.30;99.90;;;;;;5093786;28;20687;-77
2021/04/26 10:20:55;;;;;;;10.33;3.43;;;17.10;99.90;;;;;;5095313;28;20206;-77
2021/04/26 10:23:39;;;;;;;5.13;3.20;;;17.80;99.90;;;;;;5095583;28;20195;-77
2021/04/26 10:26:06;;;;;;;7.93;3.10;;;18.10;99.90;;;;;;5095408;28;20285;-81
2021/04/26 10:28:33;;;;;;;6.07;3.03;;;17.60;99.90;;;;;;5095379;28;20222;-78
2021/04/26 10:31:04;;;;;;;6.57;3.13;;;17.20;99.90;;;;;;5094239;28;20203;-77
2021/04/26 10:34:04;;;;;;;6.47;3.37;;;17.20;99.90;;;;;;5094889;28;20191;-77
2021/04/26 10:36:50;;;;;;;6.47;3.10;;;18.00;99.90;;;;;;5088872;28;20744;-77
2021/04/26 10:39:17;;;;;;;8.03;3.33;;;18.20;99.90;;;;;;5094768;28;20234;-79
2021/04/26 10:41:59;;;;;;;5.10;3.07;;;17.60;99.90;;;;;;5094982;28;20194;-77
2021/04/26 10:44:49;;;;;;;5.47;2.97;;;17.60;99.90;;;;;;5094254;28;20611;-77
2021/04/26 10:47:23;;;;;;;5.17;3.40;;;17.90;99.90;;;;;;5094957;28;20199;-77
2021/04/26 10:49:51;;;;;;;8.50;3.43;;;18.30;99.90;;;;;;5094874;28;20273;-78
2021/04/26 10:52:38;;;;;;;4.23;2.93;;;18.20;99.90;;;;;;5094611;28;20199;-77
2021/04/26 10:55:09;;;;;;;7.07;3.20;;;17.60;99.90;;;;;;5094426;28;20683;-78
2021/04/26 10:57:39;;;;;;;6.03;3.17;;;18.30;99.90;;;;;;5094324;28;20249;-78
2021/04/26 11:00:45;;;;;;;5.97;3.67;;;18.50;99.90;;;;;;5092404;28;20257;-76
2021/04/26 11:03:36;;;;;;;7.77;3.40;;;18.60;99.90;;;;;;5012079;28;20340;-77
2021/04/26 11:06:17;;;;;;;3.77;2.90;;;18.80;99.90;;;;;;5007326;28;20206;-77
2021/04/26 11:11:38;;;;;;;12.03;3.90;;;18.70;99.90;;;;;;5063333;28;20227;-77
2021/04/26 11:14:05;;;;;;;9.73;3.23;;;18.30;99.90;;;;;;5087629;28;20289;-78
2021/04/26 11:16:39;;;;;;;6.67;3.23;;;18.40;99.90;;;;;;5093775;28;20424;-77
2021/04/26 11:19:10;;;;;;;11.87;3.43;;;17.90;99.90;;;;;;5093941;28;20641;-76
2021/04/26 11:21:57;;;;;;;7.03;3.40;;;18.50;99.90;;;;;;5087723;28;20241;-77
2021/04/26 11:24:52;;;;;;;9.10;3.43;;;19.20;99.90;;;;;;5074002;28;20198;-77
2021/04/26 11:27:21;;;;;;;5.53;3.30;;;18.50;99.90;;;;;;5037915;28;20207;-77
2021/04/26 11:30:19;;;;;;;9.53;3.40;;;18.80;99.90;;;;;;5074003;28;20204;-82
2021/04/26 11:33:06;;;;;;;5.77;3.20;;;19.40;99.90;;;;;;5077023;28;20264;-77
2021/04/26 11:35:34;;;;;;;5.20;3.20;;;19.60;99.90;;;;;;5092884;28;20187;-77
2021/04/26 11:38:01;;;;;;;6.63;3.27;;;18.70;99.90;;;;;;5093515;28;20313;-77
2021/04/26 11:40:31;;;;;;;5.90;3.47;;;17.60;99.90;;;;;;5093748;28;20260;-79
2021/04/26 11:43:06;;;;;;;7.17;3.60;;;17.60;99.90;;;;;;5076083;28;20274;-77
2021/04/26 11:45:34;;;;;;;5.67;3.13;;;18.50;99.90;;;;;;5073250;28;20669;-79
2021/04/26 11:48:00;;;;;;;8.57;3.17;;;18.70;99.90;;;;;;5090790;28;20336;-81
2021/04/26 11:50:26;;;;;;;9.60;3.40;;;18.40;99.90;;;;;;5093768;28;20297;-80
2021/04/26 11:52:53;;;;;;;5.43;3.20;;;18.40;99.90;;;;;;5093522;28;20257;-79
2021/04/26 11:55:23;;;;;;;9.97;3.10;;;18.10;99.90;;;;;;5093455;28;20233;-77
2021/04/26 11:57:54;;;;;;;4.70;3.10;;;17.80;99.90;;;;;;5092256;28;20268;-76
2021/04/26 12:00:24;;;;;;;8.37;3.13;;;18.10;99.90;;;;;;5093173;28;20225;-77
2021/04/26 12:02:52;;;;;;;4.93;2.90;;;18.00;99.90;;;;;;5092723;28;20248;-77
2021/04/26 12:05:20;;;;;;;8.33;3.10;;;17.30;99.90;;;;;;5093312;28;20564;-77
2021/04/26 12:07:47;;;;;;;7.90;3.03;;;17.40;99.90;;;;;;5093479;28;20286;-77
2021/04/26 12:10:15;;;;;;;5.90;3.23;;;17.10;99.90;;;;;;5093286;28;20289;-81
2021/04/26 12:12:43;;;;;;;6.20;3.20;;;17.40;99.90;;;;;;5092876;28;20656;-78
2021/04/26 12:15:12;;;;;;;6.27;2.90;;;17.00;99.90;;;;;;5093252;28;20230;-77
2021/04/26 12:17:40;;;;;;;7.03;2.93;;;17.10;99.90;;;;;;5092319;28;20191;-79
2021/04/26 12:20:17;;;;;;;4.57;2.80;;;17.30;99.90;;;;;;5092798;28;20195;-76
2021/04/26 12:22:45;;;;;;;7.37;3.23;;;17.40;99.90;;;;;;5092779;28;20199;-79
2021/04/26 12:25:13;;;;;;;9.83;3.63;;;17.30;99.90;;;;;;5092708;28;20222;-79
2021/04/26 12:27:40;;;;;;;5.80;3.03;;;17.20;99.90;;;;;;5092887;28;20657;-77
2021/04/26 12:30:16;;;;;;;6.20;3.03;;;17.20;99.90;;;;;;5092300;28;20214;-77
2021/04/26 12:32:43;;;;;;;7.37;3.40;;;17.60;99.90;;;;;;5092559;28;20562;-77
2021/04/26 12:35:11;;;;;;;7.17;3.30;;;17.80;99.90;;;;;;5092766;28;20195;-77
2021/04/26 12:37:39;;;;;;;10.77;3.77;;;17.80;99.90;;;;;;5092622;28;20214;-79
2021/04/26 12:40:22;;;;;;;6.40;3.00;;;17.60;99.90;;;;;;5092327;28;20198;-77
2021/04/26 12:42:51;;;;;;;5.83;3.00;;;17.80;99.90;;;;;;5086299;28;20272;-79
2021/04/26 12:45:22;;;;;;;6.27;3.07;;;17.50;99.90;;;;;;5092331;28;20199;-77
2021/04/26 12:47:53;;;;;;;6.60;3.27;;;17.70;99.90;;;;;;5091537;28;20352;-77
2021/04/26 12:50:24;;;;;;;6.40;3.40;;;17.30;99.90;;;;;;5093607;28;20252;-77
2021/04/26 12:53:09;;;;;;;7.87;2.93;;;17.00;99.90;;;;;;5093940;28;20203;-77
2021/04/26 12:55:37;;;;;;;4.63;3.13;;;16.90;99.90;;;;;;5093837;28;20216;-80
2021/04/26 12:58:06;;;;;;;5.97;3.27;;;16.40;99.90;;;;;;5073220;28;20233;-79
2021/04/26 13:00:41;;;;;;;5.53;3.37;;;16.30;99.90;;;;;;5079085;28;20197;-77
2021/04/26 13:03:28;;;;;;;10.03;3.27;;;16.20;99.90;;;;;;5093458;28;20218;-77